Time;durP1;ratioP1;P1;durP2;ratioP2;P2;SDS_P1;SDS_P2;PMS_P1;PMS_P2;Temp;Humidity;BMP_temperature;BMP_pressure;BME280_temperature;BME280_humidity;BME280_pressure;Samples;Min_cycle;Max_cycle;Signal;HPM_P1;HPM_P2
2021/12/31 00:00:19;;;;;;;5.13;3.70;;;14.00;99.90;;;;;;5094033;28;20831;-57
2021/12/31 00:02:46;;;;;;;4.30;3.03;;;13.90;99.90;;;;;;5093582;28;20442;-58
2021/12/31 00:05:13;;;;;;;4.00;3.60;;;13.80;99.90;;;;;;5093873;28;20438;-57
2021/12/31 00:07:41;;;;;;;3.37;3.03;;;13.90;99.90;;;;;;5093499;28;20442;-57
2021/12/31 00:10:10;;;;;;;3.30;3.00;;;13.90;99.90;;;;;;5093680;28;20462;-58
2021/12/31 00:12:37;;;;;;;3.50;3.20;;;13.90;99.90;;;;;;5094315;28;20446;-58
2021/12/31 00:15:05;;;;;;;7.20;3.90;;;13.90;99.90;;;;;;5093007;28;20839;-58
2021/12/31 00:17:32;;;;;;;3.73;3.00;;;13.90;99.90;;;;;;5092966;28;20442;-57
2021/12/31 00:20:03;;;;;;;5.10;2.77;;;13.90;99.90;;;;;;5093016;28;20992;-58
2021/12/31 00:25:26;;;;;;;3.97;2.93;;;13.90;99.90;;;;;;5071590;28;20496;-57
2021/12/31 00:27:53;;;;;;;3.90;3.43;;;13.90;99.90;;;;;;5097178;28;20942;-57
2021/12/31 00:30:20;;;;;;;3.80;3.40;;;14.00;99.90;;;;;;5098740;28;20462;-58
2021/12/31 00:32:48;;;;;;;4.40;3.77;;;14.00;99.90;;;;;;5097910;28;20446;-58
2021/12/31 00:35:16;;;;;;;6.73;3.83;;;14.00;99.90;;;;;;5097721;28;20473;-58
2021/12/31 00:37:43;;;;;;;4.30;3.90;;;14.00;99.90;;;;;;5097910;28;20453;-57
2021/12/31 00:40:12;;;;;;;3.93;3.63;;;14.00;99.90;;;;;;5097679;28;20485;-58
2021/12/31 00:42:41;;;;;;;3.90;3.10;;;14.00;99.90;;;;;;5097597;28;20454;-58
2021/12/31 00:45:10;;;;;;;4.33;3.50;;;14.00;99.90;;;;;;5097426;28;20446;-58
2021/12/31 00:47:37;;;;;;;3.03;2.80;;;13.90;99.90;;;;;;5097338;28;20457;-57
2021/12/31 00:50:05;;;;;;;4.93;3.50;;;13.90;99.90;;;;;;5097266;28;20837;-58
2021/12/31 00:52:32;;;;;;;3.23;2.80;;;13.80;99.90;;;;;;5097311;28;20446;-58
2021/12/31 00:54:59;;;;;;;4.83;3.20;;;13.80;99.90;;;;;;5097282;28;20489;-58
2021/12/31 00:57:26;;;;;;;4.27;3.00;;;13.80;99.90;;;;;;5097497;28;20504;-58
2021/12/31 00:59:55;;;;;;;3.77;3.10;;;13.80;99.90;;;;;;5097596;28;20838;-58
2021/12/31 01:02:25;;;;;;;3.30;3.00;;;13.80;99.90;;;;;;5096802;28;21052;-57
2021/12/31 01:04:52;;;;;;;4.83;3.40;;;13.80;99.90;;;;;;5096805;28;20449;-58
2021/12/31 01:07:19;;;;;;;3.23;2.93;;;13.80;99.90;;;;;;5097878;28;20438;-57
2021/12/31 01:09:46;;;;;;;5.43;2.70;;;13.80;99.90;;;;;;5096975;28;20464;-57
2021/12/31 01:12:14;;;;;;;3.00;2.80;;;13.80;99.90;;;;;;5097294;28;20453;-58
2021/12/31 01:14:52;;;;;;;2.93;2.70;;;13.80;99.90;;;;;;5096736;28;20569;-57
2021/12/31 01:17:36;;;;;;;3.80;2.60;;;13.80;99.90;;;;;;5097172;28;20435;-57
2021/12/31 01:20:04;;;;;;;3.63;2.53;;;13.90;99.90;;;;;;5096806;28;20468;-57
2021/12/31 01:22:32;;;;;;;2.77;2.57;;;13.90;99.90;;;;;;5096298;28;20937;-57
2021/12/31 01:25:00;;;;;;;2.33;2.13;;;13.90;99.90;;;;;;5096282;28;20934;-58
2021/12/31 01:27:28;;;;;;;3.80;2.63;;;13.80;99.90;;;;;;5096805;28;20806;-58
2021/12/31 01:29:55;;;;;;;1.67;1.57;;;13.80;99.90;;;;;;5096194;28;20466;-58
2021/12/31 01:32:24;;;;;;;2.30;1.67;;;13.90;99.90;;;;;;5096104;28;20442;-58
2021/12/31 01:34:51;;;;;;;1.77;1.67;;;13.90;99.90;;;;;;5096084;28;20914;-58
2021/12/31 01:37:18;;;;;;;2.80;1.90;;;13.90;99.90;;;;;;5095344;28;20453;-58
2021/12/31 01:39:46;;;;;;;4.40;2.20;;;13.90;99.90;;;;;;5096010;28;20477;-58
2021/12/31 01:42:14;;;;;;;2.10;1.90;;;13.90;99.90;;;;;;5095952;28;20803;-57
2021/12/31 01:44:45;;;;;;;2.57;2.37;;;13.90;99.90;;;;;;5095901;28;20875;-57
2021/12/31 01:47:16;;;;;;;3.37;2.10;;;13.90;99.90;;;;;;5095742;28;20521;-57
2021/12/31 01:49:55;;;;;;;2.43;1.97;;;13.80;99.90;;;;;;5095922;28;20475;-57
2021/12/31 01:52:22;;;;;;;1.70;1.60;;;13.80;99.90;;;;;;5095633;28;20426;-57
2021/12/31 01:54:50;;;;;;;5.37;2.17;;;13.80;99.90;;;;;;5095776;28;20478;-57
2021/12/31 01:57:19;;;;;;;2.27;2.07;;;13.80;99.90;;;;;;5095714;28;20473;-58
2021/12/31 01:59:46;;;;;;;2.57;2.20;;;13.70;99.90;;;;;;5095342;28;20555;-57
2021/12/31 02:02:15;;;;;;;2.93;2.17;;;13.70;99.90;;;;;;5095614;28;20443;-56
2021/12/31 02:04:44;;;;;;;4.10;2.63;;;13.60;99.90;;;;;;5095483;28;20438;-57
2021/12/31 02:07:11;;;;;;;4.00;3.60;;;13.60;99.90;;;;;;5095899;28;20469;-58
2021/12/31 02:09:45;;;;;;;4.37;3.20;;;13.60;99.90;;;;;;5095172;28;20462;-57
2021/12/31 02:12:12;;;;;;;3.77;3.43;;;13.50;99.90;;;;;;5095441;28;20479;-57
2021/12/31 02:14:39;;;;;;;4.60;4.20;;;13.30;99.90;;;;;;5094968;28;20478;-57
2021/12/31 02:17:09;;;;;;;4.80;4.40;;;13.20;99.90;;;;;;5095434;28;20457;-57
2021/12/31 02:19:37;;;;;;;5.93;4.53;;;13.10;99.90;;;;;;5095349;28;20466;-57
2021/12/31 02:22:06;;;;;;;5.13;4.73;;;13.00;99.90;;;;;;5094970;28;20438;-57
2021/12/31 02:24:35;;;;;;;5.97;5.33;;;12.90;99.90;;;;;;5095340;28;20438;-58
2021/12/31 02:27:03;;;;;;;5.93;5.53;;;12.90;99.90;;;;;;5095907;28;20457;-57
2021/12/31 02:29:30;;;;;;;6.03;5.57;;;12.90;99.90;;;;;;5095684;28;20469;-57
2021/12/31 02:31:57;;;;;;;7.10;6.50;;;12.90;99.90;;;;;;5095455;28;20450;-57
2021/12/31 02:34:24;;;;;;;6.90;6.40;;;12.90;99.90;;;;;;5095298;28;20479;-57
2021/12/31 02:36:51;;;;;;;6.90;6.40;;;12.90;99.90;;;;;;5095531;28;20438;-60
2021/12/31 02:39:20;;;;;;;7.70;7.10;;;12.90;99.90;;;;;;5094695;28;20480;-60
2021/12/31 02:41:47;;;;;;;8.70;6.90;;;12.90;99.90;;;;;;5094903;28;20894;-60
2021/12/31 02:44:14;;;;;;;6.93;6.33;;;12.90;99.90;;;;;;5094973;28;20800;-60
2021/12/31 02:46:41;;;;;;;7.77;7.17;;;12.90;99.90;;;;;;5094468;28;20442;-61
2021/12/31 02:49:08;;;;;;;5.97;5.47;;;12.90;99.90;;;;;;5094295;28;20969;-61
2021/12/31 02:51:35;;;;;;;6.60;6.00;;;12.90;99.90;;;;;;5094709;28;20442;-61
2021/12/31 02:54:07;;;;;;;6.07;5.67;;;13.00;99.90;;;;;;5094631;28;20450;-61
2021/12/31 02:56:36;;;;;;;6.27;5.87;;;12.90;99.90;;;;;;5094716;28;20462;-61
2021/12/31 02:59:04;;;;;;;6.63;6.23;;;13.00;99.90;;;;;;5094524;28;20473;-61
2021/12/31 03:01:31;;;;;;;6.67;6.13;;;13.00;99.90;;;;;;5094258;28;20434;-61
2021/12/31 03:04:00;;;;;;;7.60;6.70;;;13.00;99.90;;;;;;5094223;28;20938;-61
2021/12/31 03:06:28;;;;;;;6.30;5.80;;;13.00;99.90;;;;;;5094104;28;20446;-61
2021/12/31 03:08:57;;;;;;;6.77;6.17;;;13.00;99.90;;;;;;5094308;28;20477;-61
2021/12/31 03:11:25;;;;;;;7.13;6.63;;;13.00;99.90;;;;;;5094378;28;20469;-61
2021/12/31 03:13:58;;;;;;;6.40;5.90;;;13.00;99.90;;;;;;5094345;28;20442;-61
2021/12/31 03:16:25;;;;;;;6.87;6.37;;;13.10;99.90;;;;;;5094371;28;20419;-61
2021/12/31 03:18:54;;;;;;;8.40;7.60;;;13.00;99.90;;;;;;5093971;28;20462;-61
2021/12/31 03:21:22;;;;;;;8.13;7.43;;;13.10;99.90;;;;;;5094355;28;20438;-63
2021/12/31 03:23:50;;;;;;;8.50;7.57;;;13.10;99.90;;;;;;5094549;28;20449;-61
2021/12/31 03:26:17;;;;;;;9.30;8.23;;;13.10;99.90;;;;;;5094163;28;20516;-61
2021/12/31 03:28:44;;;;;;;10.53;8.97;;;13.10;99.90;;;;;;5094032;28;20466;-61
2021/12/31 03:31:13;;;;;;;9.43;8.70;;;13.20;99.90;;;;;;5094007;28;20442;-61
2021/12/31 03:33:40;;;;;;;9.67;8.67;;;13.10;99.90;;;;;;5093803;28;20805;-61
2021/12/31 03:36:07;;;;;;;10.47;9.57;;;13.20;99.90;;;;;;5093650;28;20477;-61
2021/12/31 03:38:34;;;;;;;10.17;9.47;;;13.20;99.90;;;;;;5093489;28;20478;-62
2021/12/31 03:41:01;;;;;;;9.23;8.50;;;13.20;99.90;;;;;;5093963;28;20431;-61
2021/12/31 03:43:28;;;;;;;9.47;8.73;;;13.20;99.90;;;;;;5093690;28;20446;-61
2021/12/31 03:45:55;;;;;;;8.90;8.10;;;13.20;99.90;;;;;;5093716;28;20457;-61
2021/12/31 03:48:24;;;;;;;9.03;8.23;;;13.20;99.90;;;;;;5093787;28;20565;-62
2021/12/31 03:50:52;;;;;;;8.90;8.20;;;13.20;99.90;;;;;;5093738;28;20507;-61
2021/12/31 03:53:19;;;;;;;8.57;7.77;;;13.20;99.90;;;;;;5093482;28;20938;-60
2021/12/31 03:55:47;;;;;;;8.13;7.50;;;13.20;99.90;;;;;;5093617;28;20569;-61
2021/12/31 03:58:14;;;;;;;7.90;7.20;;;13.20;99.90;;;;;;5094001;28;20457;-62
2021/12/31 04:00:41;;;;;;;8.57;7.77;;;13.20;99.90;;;;;;5093390;28;20458;-61
2021/12/31 04:03:08;;;;;;;8.03;7.23;;;13.20;99.90;;;;;;5093616;28;20442;-61
2021/12/31 04:09:06;;;;;;;9.00;8.20;;;13.20;99.90;;;;;;5091101;27;21069;-61
2021/12/31 04:11:33;;;;;;;11.20;10.30;;;13.30;99.90;;;;;;5091435;28;20442;-61
2021/12/31 04:14:00;;;;;;;10.53;8.93;;;13.30;99.90;;;;;;5090484;28;20449;-61
2021/12/31 04:16:27;;;;;;;8.40;7.67;;;13.30;99.90;;;;;;5091335;28;20450;-61
2021/12/31 04:18:54;;;;;;;9.13;8.30;;;13.30;99.90;;;;;;5090395;28;20463;-61
2021/12/31 04:21:23;;;;;;;10.37;9.40;;;13.20;99.90;;;;;;5094815;22;21018;-62
2021/12/31 04:23:53;;;;;;;10.37;9.37;;;13.20;99.90;;;;;;5050408;28;20863;-61
2021/12/31 04:26:21;;;;;;;10.00;9.13;;;13.20;99.90;;;;;;5050036;28;20940;-62
2021/12/31 04:28:48;;;;;;;12.23;10.50;;;13.20;99.90;;;;;;5049919;28;20484;-61
2021/12/31 04:31:15;;;;;;;9.27;8.37;;;13.20;99.90;;;;;;5050327;28;20465;-61
2021/12/31 04:33:42;;;;;;;8.90;8.20;;;13.20;99.90;;;;;;5050729;28;20444;-60
2021/12/31 04:36:10;;;;;;;8.50;7.80;;;13.30;99.90;;;;;;5050124;28;20471;-61
2021/12/31 04:38:37;;;;;;;8.90;8.00;;;13.30;99.90;;;;;;5050111;28;20449;-62
2021/12/31 04:41:04;;;;;;;8.23;7.63;;;13.30;99.90;;;;;;5049977;28;20826;-62
2021/12/31 04:43:33;;;;;;;7.80;7.00;;;13.30;99.90;;;;;;5049728;28;20855;-62
2021/12/31 04:46:00;;;;;;;7.63;7.07;;;13.30;99.90;;;;;;5050216;28;20444;-62
2021/12/31 04:48:27;;;;;;;7.60;6.77;;;13.30;99.90;;;;;;5050208;28;20480;-61
2021/12/31 04:50:54;;;;;;;7.57;6.87;;;13.30;99.90;;;;;;5049699;28;20842;-62
2021/12/31 04:53:21;;;;;;;8.20;6.20;;;13.40;99.90;;;;;;5049619;28;20837;-62
2021/12/31 04:55:50;;;;;;;7.13;5.73;;;13.40;99.90;;;;;;5049477;28;20455;-62
2021/12/31 04:58:17;;;;;;;9.53;5.53;;;13.40;99.90;;;;;;5049753;28;20498;-62
2021/12/31 05:00:45;;;;;;;8.43;6.30;;;13.40;99.90;;;;;;5049366;28;20471;-61
2021/12/31 05:03:14;;;;;;;9.40;5.50;;;13.40;99.90;;;;;;5049657;28;20449;-61
2021/12/31 05:05:41;;;;;;;9.77;5.90;;;13.40;99.90;;;;;;5049702;28;20452;-62
2021/12/31 05:08:08;;;;;;;5.27;4.77;;;13.20;99.90;;;;;;5049473;28;20838;-61
2021/12/31 05:10:35;;;;;;;6.27;4.50;;;13.10;99.90;;;;;;5049216;28;20467;-62
2021/12/31 05:13:04;;;;;;;4.43;4.07;;;13.00;99.90;;;;;;5051877;28;20444;-61
2021/12/31 05:15:35;;;;;;;4.60;4.00;;;12.90;99.90;;;;;;5054148;28;20457;-62
2021/12/31 05:18:04;;;;;;;5.03;4.47;;;12.90;99.90;;;;;;5052593;28;20439;-61
2021/12/31 05:20:31;;;;;;;6.27;4.80;;;12.80;99.90;;;;;;5039618;28;20447;-60
2021/12/31 05:23:00;;;;;;;5.10;4.33;;;12.80;99.90;;;;;;5039069;28;20433;-61
2021/12/31 05:25:27;;;;;;;5.77;4.63;;;12.70;99.90;;;;;;5039750;28;20786;-61
2021/12/31 05:27:55;;;;;;;5.83;4.20;;;12.70;99.90;;;;;;5037067;28;20856;-61
2021/12/31 05:30:22;;;;;;;7.13;4.40;;;12.70;99.90;;;;;;5036825;28;20526;-61
2021/12/31 05:32:49;;;;;;;6.93;4.27;;;12.70;99.90;;;;;;5036764;28;20445;-61
2021/12/31 05:35:18;;;;;;;7.07;3.63;;;12.70;99.90;;;;;;5036361;28;20859;-60
2021/12/31 05:37:45;;;;;;;5.90;3.73;;;12.70;99.90;;;;;;5036496;28;20441;-61
2021/12/31 05:40:12;;;;;;;4.57;3.00;;;12.80;99.90;;;;;;5036141;28;20460;-62
2021/12/31 05:42:39;;;;;;;3.87;2.67;;;12.90;99.90;;;;;;5037000;28;20952;-61
2021/12/31 05:45:09;;;;;;;3.20;2.90;;;13.00;99.90;;;;;;5036440;28;20444;-62
2021/12/31 05:47:36;;;;;;;4.17;2.80;;;13.00;99.90;;;;;;5036236;28;21054;-61
2021/12/31 05:50:05;;;;;;;5.10;2.90;;;13.10;99.90;;;;;;5036356;28;20479;-62
2021/12/31 05:52:34;;;;;;;5.00;2.90;;;13.00;99.90;;;;;;5035903;28;20555;-61
2021/12/31 05:55:01;;;;;;;6.10;2.70;;;13.00;99.90;;;;;;5036468;28;20445;-60
2021/12/31 05:57:28;;;;;;;5.00;2.73;;;13.00;99.90;;;;;;5035917;28;20445;-60
2021/12/31 05:59:55;;;;;;;3.00;2.63;;;13.10;99.90;;;;;;5035859;28;20441;-61
2021/12/31 06:02:22;;;;;;;4.10;2.40;;;13.00;99.90;;;;;;5035442;28;20560;-61
2021/12/31 06:04:49;;;;;;;5.17;2.17;;;13.00;99.90;;;;;;5035821;28;20532;-61
2021/12/31 06:07:16;;;;;;;4.50;2.37;;;13.00;99.90;;;;;;5036121;28;20540;-62
2021/12/31 06:09:45;;;;;;;4.13;2.20;;;13.00;99.90;;;;;;5035525;28;20545;-61
2021/12/31 06:12:12;;;;;;;3.30;1.93;;;13.10;99.90;;;;;;5035436;28;20469;-61
2021/12/31 06:14:39;;;;;;;3.73;2.43;;;13.20;99.90;;;;;;5035675;28;20473;-61
2021/12/31 06:17:08;;;;;;;2.63;1.80;;;13.20;99.90;;;;;;5034955;28;20453;-61
2021/12/31 06:19:36;;;;;;;2.47;2.00;;;13.30;99.90;;;;;;5035257;28;20855;-61
2021/12/31 06:22:03;;;;;;;3.30;1.90;;;13.30;99.90;;;;;;5035468;28;20552;-61
2021/12/31 06:24:30;;;;;;;2.70;1.53;;;13.40;99.90;;;;;;5035543;28;20550;-60
2021/12/31 06:26:59;;;;;;;2.17;1.50;;;13.40;99.90;;;;;;5035210;28;20449;-60
2021/12/31 06:29:26;;;;;;;2.13;1.60;;;13.50;99.90;;;;;;5034785;28;21012;-61
2021/12/31 06:31:53;;;;;;;4.20;2.53;;;13.50;99.90;;;;;;5034197;28;20560;-61
2021/12/31 06:34:20;;;;;;;3.00;1.80;;;13.50;99.90;;;;;;5034512;28;20972;-60
2021/12/31 06:36:47;;;;;;;2.27;1.77;;;13.60;99.90;;;;;;5034669;28;20448;-61
2021/12/31 06:39:14;;;;;;;2.00;1.57;;;13.60;99.90;;;;;;5034847;28;20445;-60
2021/12/31 06:41:41;;;;;;;2.10;1.60;;;13.60;99.90;;;;;;5034638;28;20473;-61
2021/12/31 06:44:09;;;;;;;5.03;1.70;;;13.60;99.90;;;;;;5034380;28;20964;-61
2021/12/31 06:46:36;;;;;;;5.13;1.83;;;13.60;99.90;;;;;;5034573;28;20457;-60
2021/12/31 06:49:04;;;;;;;4.87;1.70;;;13.60;99.90;;;;;;5034382;28;20492;-61
2021/12/31 06:51:31;;;;;;;2.17;1.60;;;13.60;99.90;;;;;;5034164;28;20457;-60
2021/12/31 06:53:58;;;;;;;2.87;1.80;;;13.70;99.90;;;;;;5034414;28;20449;-61
2021/12/31 06:56:25;;;;;;;2.50;1.57;;;13.70;99.90;;;;;;5034215;28;20440;-60
2021/12/31 06:58:52;;;;;;;2.40;1.40;;;13.70;99.90;;;;;;5034103;28;20949;-61
2021/12/31 07:01:21;;;;;;;3.43;1.63;;;13.70;99.90;;;;;;5034465;28;20483;-60
2021/12/31 07:03:48;;;;;;;1.80;1.57;;;13.70;99.90;;;;;;5034837;28;20495;-62
2021/12/31 07:06:15;;;;;;;1.43;1.33;;;13.70;99.90;;;;;;5034740;28;20946;-62
2021/12/31 07:08:42;;;;;;;1.33;1.10;;;13.80;99.90;;;;;;5034914;28;20480;-61
2021/12/31 07:11:09;;;;;;;2.33;1.40;;;13.80;99.90;;;;;;5035816;28;20473;-65
2021/12/31 07:13:37;;;;;;;2.40;1.60;;;13.80;99.90;;;;;;5034826;28;20460;-60
2021/12/31 07:16:05;;;;;;;4.20;1.47;;;13.80;99.90;;;;;;5034738;28;20464;-61
2021/12/31 07:18:33;;;;;;;2.20;1.53;;;13.80;99.90;;;;;;5034653;28;20445;-61
2021/12/31 07:21:01;;;;;;;3.00;1.50;;;13.80;99.90;;;;;;5033866;28;20988;-62
2021/12/31 07:23:28;;;;;;;2.50;1.50;;;13.80;99.90;;;;;;5034825;28;20945;-61
2021/12/31 07:25:55;;;;;;;3.27;1.77;;;13.70;99.90;;;;;;5038620;28;20448;-62
2021/12/31 07:28:22;;;;;;;1.70;1.60;;;13.70;99.90;;;;;;5038506;28;20481;-61
2021/12/31 07:30:49;;;;;;;2.77;1.70;;;13.60;99.90;;;;;;5037200;28;20461;-62
2021/12/31 07:33:17;;;;;;;3.30;2.07;;;13.60;99.90;;;;;;5041505;28;20468;-64
2021/12/31 07:35:45;;;;;;;1.97;1.83;;;13.60;99.90;;;;;;5036434;28;20480;-62
2021/12/31 07:38:20;;;;;;;3.87;1.80;;;13.60;99.90;;;;;;5036160;28;20447;-62
2021/12/31 07:40:47;;;;;;;3.90;1.50;;;13.60;99.90;;;;;;5034057;28;20472;-63
2021/12/31 07:43:15;;;;;;;3.90;1.40;;;13.60;99.90;;;;;;5033562;28;20449;-62
2021/12/31 07:45:42;;;;;;;2.47;1.70;;;13.60;99.90;;;;;;5033777;28;20449;-63
2021/12/31 07:48:10;;;;;;;3.97;1.57;;;13.60;99.90;;;;;;5033626;28;20477;-61
2021/12/31 07:50:37;;;;;;;2.83;1.80;;;13.60;99.90;;;;;;5033623;28;20472;-62
2021/12/31 07:53:06;;;;;;;2.77;1.63;;;13.60;99.90;;;;;;5034039;28;20472;-61
2021/12/31 07:55:33;;;;;;;2.73;1.77;;;13.60;99.90;;;;;;5034318;28;20457;-61
2021/12/31 07:58:01;;;;;;;2.43;2.10;;;13.60;99.90;;;;;;5033857;28;20458;-62
2021/12/31 08:00:28;;;;;;;2.23;1.53;;;13.60;99.90;;;;;;5033378;28;20541;-63
2021/12/31 08:02:55;;;;;;;2.60;1.63;;;13.60;99.90;;;;;;5033228;28;20967;-62
2021/12/31 08:05:23;;;;;;;2.70;1.60;;;13.50;99.90;;;;;;5033087;28;20476;-62
2021/12/31 08:07:50;;;;;;;3.23;1.87;;;13.60;99.90;;;;;;5033442;28;20445;-62
2021/12/31 08:10:18;;;;;;;3.00;1.83;;;13.50;99.90;;;;;;5033283;28;20479;-60
2021/12/31 08:12:45;;;;;;;2.50;1.50;;;13.50;99.90;;;;;;5033134;28;20452;-61
2021/12/31 08:15:13;;;;;;;5.17;1.50;;;13.60;99.90;;;;;;5033489;28;20453;-61
2021/12/31 08:17:40;;;;;;;2.50;1.87;;;13.60;99.90;;;;;;5033349;28;20452;-63
2021/12/31 08:20:08;;;;;;;1.80;1.60;;;13.60;99.90;;;;;;5033217;28;20449;-62
2021/12/31 08:22:36;;;;;;;2.37;1.60;;;13.60;99.90;;;;;;5032692;28;20484;-62
2021/12/31 08:25:04;;;;;;;2.60;1.47;;;13.60;99.90;;;;;;5033243;28;20482;-62
2021/12/31 08:27:33;;;;;;;1.80;1.67;;;13.70;99.90;;;;;;5033380;28;20445;-62
2021/12/31 08:30:00;;;;;;;2.30;1.80;;;13.70;99.90;;;;;;5032884;28;20481;-61
2021/12/31 08:32:27;;;;;;;1.97;1.50;;;13.80;99.90;;;;;;5032730;28;20475;-62
2021/12/31 08:34:54;;;;;;;3.40;1.80;;;13.80;99.90;;;;;;5032758;28;20487;-62
2021/12/31 08:37:21;;;;;;;2.00;1.70;;;13.80;99.90;;;;;;5032836;28;20445;-62
2021/12/31 08:39:48;;;;;;;3.10;1.73;;;13.90;99.90;;;;;;5032659;28;20441;-61
2021/12/31 08:42:15;;;;;;;5.30;2.03;;;14.00;99.90;;;;;;5032467;28;20465;-62
2021/12/31 08:44:43;;;;;;;3.13;1.93;;;14.00;99.90;;;;;;5033030;28;20524;-62
2021/12/31 08:47:11;;;;;;;2.70;1.77;;;14.10;99.90;;;;;;5032730;28;20452;-61
2021/12/31 08:49:38;;;;;;;2.23;1.87;;;14.10;99.90;;;;;;5032582;28;20477;-61
2021/12/31 08:52:05;;;;;;;4.37;1.90;;;14.20;99.90;;;;;;5032454;28;20464;-61
2021/12/31 08:54:32;;;;;;;5.07;1.97;;;14.20;99.90;;;;;;5034404;28;20445;-61
2021/12/31 08:57:00;;;;;;;1.40;1.23;;;14.20;99.90;;;;;;5036692;28;20445;-62
2021/12/31 08:59:27;;;;;;;2.17;1.80;;;14.30;99.90;;;;;;5036661;28;20776;-61
2021/12/31 09:01:56;;;;;;;1.67;1.57;;;14.30;99.90;;;;;;5036527;28;20468;-62
2021/12/31 09:04:23;;;;;;;4.07;1.60;;;14.30;99.90;;;;;;5036408;28;20440;-62
2021/12/31 09:06:50;;;;;;;2.10;1.47;;;14.30;99.90;;;;;;5036370;28;20441;-62
2021/12/31 09:09:17;;;;;;;5.03;1.97;;;14.30;99.90;;;;;;5036073;28;21014;-62
2021/12/31 09:11:44;;;;;;;2.00;1.60;;;14.30;99.90;;;;;;5036168;28;20476;-61
2021/12/31 09:14:12;;;;;;;2.17;1.70;;;14.30;99.90;;;;;;5036046;28;20441;-61
2021/12/31 09:16:39;;;;;;;2.23;1.50;;;14.30;99.90;;;;;;5036019;28;20832;-61
2021/12/31 09:19:08;;;;;;;3.57;1.60;;;14.30;99.90;;;;;;5035749;28;20453;-61
2021/12/31 09:21:35;;;;;;;3.10;1.40;;;14.30;99.90;;;;;;5035417;28;20985;-61
2021/12/31 09:24:02;;;;;;;3.50;2.00;;;14.40;99.90;;;;;;5035701;28;20445;-62
2021/12/31 09:26:29;;;;;;;2.10;1.60;;;14.40;99.90;;;;;;5036293;28;20453;-61
2021/12/31 09:28:56;;;;;;;2.90;1.70;;;14.30;99.90;;;;;;5036268;28;20496;-61
2021/12/31 09:31:23;;;;;;;3.03;1.50;;;14.30;99.90;;;;;;5035776;28;21007;-62
2021/12/31 09:33:50;;;;;;;2.50;1.80;;;14.30;99.90;;;;;;5035541;28;20456;-62
2021/12/31 09:36:18;;;;;;;2.93;1.97;;;14.30;99.90;;;;;;5035936;28;20444;-62
2021/12/31 09:38:45;;;;;;;3.70;1.93;;;14.30;99.90;;;;;;5035720;28;20463;-62
2021/12/31 09:41:13;;;;;;;3.80;1.53;;;14.20;99.90;;;;;;5036439;28;20472;-61
2021/12/31 09:43:40;;;;;;;1.53;1.43;;;14.20;99.90;;;;;;5036819;28;20444;-62
2021/12/31 09:46:07;;;;;;;1.97;1.60;;;14.20;99.90;;;;;;5036707;28;20436;-62
2021/12/31 09:48:34;;;;;;;3.10;1.93;;;14.20;99.90;;;;;;5037663;28;20968;-61
2021/12/31 09:51:06;;;;;;;1.90;1.40;;;14.20;99.90;;;;;;5035978;28;20472;-61
2021/12/31 09:53:34;;;;;;;3.40;1.87;;;14.20;99.90;;;;;;5035835;28;20433;-61
2021/12/31 09:56:01;;;;;;;2.30;1.70;;;14.20;99.90;;;;;;5035417;28;20445;-61
2021/12/31 09:58:29;;;;;;;2.20;1.50;;;14.20;99.90;;;;;;5035720;28;20475;-62
2021/12/31 10:01:00;;;;;;;2.30;1.87;;;14.20;99.90;;;;;;5035352;28;20556;-61
2021/12/31 10:03:29;;;;;;;2.13;1.80;;;14.20;99.90;;;;;;5035227;28;20493;-62
2021/12/31 10:05:58;;;;;;;2.40;1.57;;;14.20;99.90;;;;;;5034808;28;20539;-62
2021/12/31 10:08:27;;;;;;;3.50;1.83;;;14.20;99.90;;;;;;5035150;28;20457;-62
2021/12/31 10:11:07;;;;;;;3.87;2.13;;;14.20;99.90;;;;;;5034773;28;20495;-62
2021/12/31 10:13:35;;;;;;;3.90;2.00;;;14.20;99.90;;;;;;5035081;28;20429;-62
2021/12/31 10:16:03;;;;;;;4.97;2.07;;;14.20;99.90;;;;;;5034805;28;20444;-62
2021/12/31 10:18:31;;;;;;;2.43;1.77;;;14.20;99.90;;;;;;5034985;28;20792;-62
2021/12/31 10:20:59;;;;;;;3.27;2.77;;;14.20;99.90;;;;;;5068252;22;20476;-60
2021/12/31 10:23:26;;;;;;;1.90;1.80;;;14.20;99.90;;;;;;5037338;28;20457;-58
2021/12/31 10:26:09;;;;;;;7.23;2.20;;;14.20;99.90;;;;;;5038164;28;20456;-59
2021/12/31 10:28:36;;;;;;;3.87;2.40;;;14.20;99.90;;;;;;5036432;28;20430;-59
2021/12/31 10:31:16;;;;;;;2.77;2.10;;;14.20;99.90;;;;;;5035367;28;20454;-58
2021/12/31 10:33:44;;;;;;;3.53;2.40;;;14.30;99.90;;;;;;5035374;28;20425;-57
2021/12/31 10:36:28;;;;;;;3.13;2.50;;;14.30;99.90;;;;;;5034716;28;20429;-58
2021/12/31 10:38:55;;;;;;;2.57;2.37;;;14.30;99.90;;;;;;5034534;28;20820;-57
2021/12/31 10:41:23;;;;;;;2.63;2.43;;;14.30;99.90;;;;;;5034532;28;21110;-59
2021/12/31 10:43:57;;;;;;;2.13;2.00;;;14.40;99.90;;;;;;5034415;28;20956;-58
2021/12/31 10:46:25;;;;;;;2.50;2.30;;;14.40;99.90;;;;;;5034668;28;20492;-58
2021/12/31 10:48:55;;;;;;;3.00;2.30;;;14.40;99.90;;;;;;5034470;28;20470;-57
2021/12/31 10:51:37;;;;;;;2.80;2.60;;;14.40;99.90;;;;;;5035110;28;20480;-58
2021/12/31 10:54:19;;;;;;;2.77;2.50;;;14.40;99.90;;;;;;5034305;28;20429;-58
2021/12/31 10:56:47;;;;;;;2.60;2.40;;;14.40;99.90;;;;;;5034364;28;20433;-59
2021/12/31 10:59:14;;;;;;;2.93;2.53;;;14.40;99.90;;;;;;5033976;28;20444;-58
2021/12/31 11:01:41;;;;;;;3.10;2.63;;;14.40;99.90;;;;;;5033577;28;20473;-58
2021/12/31 11:04:11;;;;;;;3.93;2.50;;;14.40;99.90;;;;;;5033689;28;20457;-58
2021/12/31 11:06:42;;;;;;;3.23;2.87;;;14.40;99.90;;;;;;5033760;28;20880;-57
2021/12/31 11:09:09;;;;;;;2.80;2.60;;;14.40;99.90;;;;;;5033881;28;20500;-58
2021/12/31 11:11:37;;;;;;;2.90;2.33;;;14.50;99.90;;;;;;5033780;28;20461;-56
2021/12/31 11:14:06;;;;;;;3.00;2.70;;;14.60;99.90;;;;;;5033611;28;20445;-57
2021/12/31 11:16:37;;;;;;;2.87;2.37;;;14.60;99.90;;;;;;5033530;28;20791;-58
2021/12/31 11:19:04;;;;;;;4.00;2.83;;;14.70;99.90;;;;;;5033983;28;20437;-58
2021/12/31 11:21:32;;;;;;;4.30;3.30;;;14.70;99.90;;;;;;5033467;28;20516;-58
2021/12/31 11:24:30;;;;;;;3.20;2.70;;;14.70;99.90;;;;;;5033385;28;20449;-59
2021/12/31 11:26:58;;;;;;;3.90;2.90;;;14.70;99.90;;;;;;5033300;28;20452;-58
2021/12/31 11:29:36;;;;;;;3.50;3.03;;;14.70;99.90;;;;;;5033111;28;21023;-58
2021/12/31 11:32:05;;;;;;;3.50;2.70;;;14.70;99.90;;;;;;5033411;28;20469;-57
2021/12/31 11:34:32;;;;;;;2.90;2.60;;;14.70;99.90;;;;;;5033277;28;20449;-57
2021/12/31 11:36:59;;;;;;;3.87;2.63;;;14.70;99.90;;;;;;5033469;28;20460;-58
2021/12/31 11:39:29;;;;;;;2.63;2.43;;;14.70;99.90;;;;;;5033911;28;20468;-58
2021/12/31 11:41:58;;;;;;;3.97;2.67;;;14.70;99.90;;;;;;5033195;28;20465;-58
2021/12/31 11:44:27;;;;;;;3.40;2.97;;;14.70;99.90;;;;;;5033728;28;20437;-58
2021/12/31 11:47:13;;;;;;;3.03;2.83;;;14.70;99.90;;;;;;5033868;28;20483;-58
2021/12/31 11:49:41;;;;;;;2.83;2.37;;;14.70;99.90;;;;;;5033451;28;21046;-58
2021/12/31 11:52:10;;;;;;;2.70;2.30;;;14.70;99.90;;;;;;5033552;28;20476;-59
2021/12/31 11:54:38;;;;;;;2.70;2.43;;;14.70;99.90;;;;;;5033166;28;20460;-58
2021/12/31 11:57:11;;;;;;;2.60;2.40;;;14.70;99.90;;;;;;5034055;28;20856;-60
2021/12/31 11:59:51;;;;;;;2.50;2.30;;;14.70;99.90;;;;;;5034129;28;20434;-59
2021/12/31 12:02:20;;;;;;;3.80;2.30;;;14.70;99.90;;;;;;5033382;28;20818;-59
2021/12/31 12:05:07;;;;;;;2.40;2.20;;;14.70;99.90;;;;;;5033184;28;20456;-58
2021/12/31 12:07:39;;;;;;;2.97;2.03;;;14.60;99.90;;;;;;5033390;28;20429;-58
2021/12/31 12:10:15;;;;;;;3.50;2.30;;;14.60;99.90;;;;;;5033286;28;20468;-58
2021/12/31 12:12:48;;;;;;;2.37;2.13;;;14.60;99.90;;;;;;5033690;28;20472;-58
2021/12/31 12:15:31;;;;;;;2.30;2.10;;;14.60;99.90;;;;;;5033225;28;20437;-58
2021/12/31 12:18:00;;;;;;;4.50;2.97;;;14.60;99.90;;;;;;5033539;28;20436;-58
2021/12/31 12:20:41;;;;;;;3.23;2.50;;;14.60;99.90;;;;;;5033111;28;20445;-58
2021/12/31 12:23:20;;;;;;;5.00;2.70;;;14.60;99.90;;;;;;5032766;28;20484;-58
2021/12/31 12:25:48;;;;;;;3.27;2.13;;;14.60;99.90;;;;;;5033122;28;20437;-58
2021/12/31 12:28:16;;;;;;;2.80;2.10;;;14.50;99.90;;;;;;5033449;28;20457;-58
2021/12/31 12:30:52;;;;;;;1.93;1.80;;;14.50;99.90;;;;;;5036852;28;20481;-58
2021/12/31 12:33:24;;;;;;;2.00;1.50;;;14.50;99.90;;;;;;5037411;28;20468;-58
2021/12/31 12:35:52;;;;;;;3.50;1.47;;;14.50;99.90;;;;;;5037494;28;20441;-58
2021/12/31 12:38:22;;;;;;;2.03;1.83;;;14.50;99.90;;;;;;5037396;28;20453;-59
2021/12/31 12:40:53;;;;;;;4.03;2.60;;;14.50;99.80;;;;;;5037038;28;20441;-59
2021/12/31 12:43:22;;;;;;;3.70;2.70;;;14.50;99.80;;;;;;5036836;28;20429;-59
2021/12/31 12:45:53;;;;;;;1.93;1.70;;;14.40;99.90;;;;;;5037229;28;20925;-57
2021/12/31 12:48:34;;;;;;;3.50;1.93;;;14.40;99.90;;;;;;5037941;28;20910;-60
2021/12/31 12:51:03;;;;;;;1.70;1.60;;;14.50;99.90;;;;;;5039254;28;20472;-58
2021/12/31 12:53:33;;;;;;;6.67;2.70;;;14.50;99.90;;;;;;5038401;28;20451;-56
2021/12/31 12:56:08;;;;;;;1.67;1.50;;;14.50;99.90;;;;;;5037470;28;20456;-59
2021/12/31 12:58:37;;;;;;;2.23;1.63;;;14.50;99.70;;;;;;5036543;28;20897;-58